createdAt,value
2018-03-23T00:01:43.172Z,64.67
2018-03-23T00:04:09.116Z,64.55
2018-03-23T00:06:35.051Z,65.54
2018-03-23T00:09:01.026Z,64.14
2018-03-23T00:11:26.951Z,64.64
2018-03-23T00:13:52.913Z,65.44
2018-03-23T00:16:18.842Z,65.82
2018-03-23T00:18:44.800Z,65.45
2018-03-23T00:21:10.745Z,65.94
2018-03-23T00:23:36.691Z,64.91
2018-03-23T00:26:02.654Z,64.57
2018-03-23T00:28:28.608Z,64.69
2018-03-23T00:30:54.546Z,66.11
2018-03-23T00:33:20.487Z,64.08
2018-03-23T00:35:46.410Z,65.29
2018-03-23T00:38:12.366Z,64.85
2018-03-23T00:40:38.302Z,65.24
2018-03-23T00:43:04.270Z,65.21
2018-03-23T00:45:30.228Z,64.52
2018-03-23T00:47:56.202Z,64.74
2018-03-23T00:50:22.152Z,65.70
2018-03-23T00:52:48.091Z,64.52
2018-03-23T00:55:14.468Z,64.97
2018-03-23T00:57:40.448Z,64.53
2018-03-23T01:00:06.402Z,65.02
2018-03-23T01:02:32.370Z,64.64
2018-03-23T01:04:58.318Z,65.19
2018-03-23T01:07:24.293Z,64.21
2018-03-23T01:09:50.246Z,63.73
2018-03-23T01:12:16.210Z,64.55
2018-03-23T01:14:42.148Z,64.46
2018-03-23T01:17:08.098Z,64.80
2018-03-23T01:19:34.066Z,65.40
2018-03-23T01:22:00.044Z,65.07
2018-03-23T01:24:25.987Z,65.51
2018-03-23T01:26:51.932Z,65.55
2018-03-23T01:29:17.872Z,65.71
2018-03-23T01:31:43.803Z,65.31
2018-03-23T01:34:09.757Z,65.79
2018-03-23T01:36:35.732Z,64.71
2018-03-23T01:39:01.669Z,64.47
2018-03-23T01:41:27.605Z,65.18
2018-03-23T01:43:53.540Z,65.53
2018-03-23T01:46:19.479Z,65.08
2018-03-23T01:48:45.416Z,65.90
2018-03-23T01:51:11.352Z,66.00
2018-03-23T01:53:37.283Z,65.83
2018-03-23T01:56:03.222Z,66.22
2018-03-23T01:58:29.162Z,65.61
2018-03-23T02:00:55.104Z,66.33
2018-03-23T02:03:21.035Z,65.96
2018-03-23T02:05:46.982Z,65.75
2018-03-23T02:08:12.934Z,65.87
2018-03-23T02:10:38.882Z,65.90
2018-03-23T02:13:04.820Z,65.88
2018-03-23T02:15:30.770Z,65.54
2018-03-23T02:17:56.733Z,65.32
2018-03-23T02:20:22.684Z,66.34
2018-03-23T02:22:48.616Z,65.80
2018-03-23T02:25:14.570Z,65.88
2018-03-23T02:27:40.516Z,66.06
2018-03-23T02:30:06.444Z,65.61
2018-03-23T02:32:32.386Z,66.62
2018-03-23T02:34:58.341Z,65.46
2018-03-23T02:37:24.272Z,65.56
2018-03-23T02:39:50.215Z,66.38
2018-03-23T02:42:16.151Z,65.07
2018-03-23T02:44:42.103Z,65.77
2018-03-23T02:47:08.039Z,64.98
2018-03-23T02:49:33.982Z,65.12
2018-03-23T02:51:59.947Z,65.95
2018-03-23T02:54:25.894Z,65.94
2018-03-23T02:56:51.860Z,66.21
2018-03-23T02:59:17.796Z,65.74
2018-03-23T03:01:43.735Z,65.57
2018-03-23T03:04:09.682Z,66.20
2018-03-23T03:06:35.619Z,66.58
2018-03-23T03:09:01.551Z,65.82
2018-03-23T03:11:27.519Z,65.80
2018-03-23T03:13:53.568Z,66.26
2018-03-23T03:16:19.506Z,67.19
2018-03-23T03:18:45.431Z,66.90
2018-03-23T03:21:11.362Z,65.92
2018-03-23T03:23:37.317Z,66.84
2018-03-23T03:26:03.281Z,66.85
2018-03-23T03:28:29.231Z,66.11
2018-03-23T03:30:55.170Z,66.67
2018-03-23T03:33:21.103Z,66.83
2018-03-23T03:35:47.045Z,66.40
2018-03-23T03:38:13.099Z,66.22
2018-03-23T03:40:39.049Z,65.90
2018-03-23T03:43:05.068Z,66.48
2018-03-23T03:45:30.995Z,65.92
2018-03-23T03:47:58.019Z,66.54
2018-03-23T03:50:25.051Z,65.03
2018-03-23T03:52:50.983Z,66.06
2018-03-23T03:55:16.917Z,64.96
2018-03-23T03:57:42.865Z,65.79
2018-03-23T04:00:09.866Z,65.91
2018-03-23T04:02:35.827Z,65.14
2018-03-23T04:05:01.781Z,65.36
2018-03-23T04:07:27.738Z,66.11
2018-03-23T04:09:53.693Z,66.27
2018-03-23T04:12:21.730Z,66.30
2018-03-23T04:14:47.670Z,65.65
2018-03-23T04:17:13.640Z,66.05
2018-03-23T04:19:40.617Z,66.12
2018-03-23T04:22:06.594Z,65.11
2018-03-23T04:24:33.609Z,66.19
2018-03-23T04:27:00.618Z,66.10
2018-03-23T04:29:26.538Z,66.27
2018-03-23T04:31:52.535Z,66.15
2018-03-23T04:34:18.501Z,66.26
2018-03-23T04:36:44.461Z,66.46
2018-03-23T04:39:10.394Z,66.13
2018-03-23T04:41:36.322Z,65.82
2018-03-23T04:44:02.243Z,66.17
2018-03-23T04:46:28.192Z,66.10
2018-03-23T04:48:54.117Z,65.16
2018-03-23T04:51:20.065Z,64.58
2018-03-23T04:53:46.018Z,64.67
2018-03-23T04:56:11.966Z,66.08
2018-03-23T04:58:37.924Z,66.32
2018-03-23T05:01:03.858Z,65.59
2018-03-23T05:03:29.821Z,66.22
2018-03-23T05:05:55.759Z,66.67
2018-03-23T05:08:21.735Z,65.82
2018-03-23T05:10:47.693Z,66.02
2018-03-23T05:13:13.666Z,65.89
2018-03-23T05:15:39.607Z,65.98
2018-03-23T05:18:05.550Z,65.79
2018-03-23T05:20:31.501Z,65.41
2018-03-23T05:22:57.467Z,65.54
2018-03-23T05:25:23.425Z,66.14
2018-03-23T05:27:49.365Z,66.11
2018-03-23T05:30:15.307Z,64.54
2018-03-23T05:32:41.239Z,65.12
2018-03-23T05:35:07.197Z,65.94
2018-03-23T05:37:33.144Z,65.58
2018-03-23T05:39:59.087Z,65.70
2018-03-23T05:42:25.134Z,65.84
2018-03-23T05:44:51.081Z,65.63
2018-03-23T05:47:17.031Z,65.39
2018-03-23T05:49:43.009Z,65.75
2018-03-23T05:52:08.953Z,64.95
2018-03-23T05:54:34.915Z,64.43
2018-03-23T05:57:00.871Z,65.37
2018-03-23T05:59:26.805Z,66.00
2018-03-23T06:01:52.752Z,65.25
2018-03-23T06:04:18.687Z,65.41
2018-03-23T06:06:44.611Z,65.42
2018-03-23T06:09:10.569Z,65.35
2018-03-23T06:11:36.499Z,65.24
2018-03-23T06:14:02.455Z,65.92
2018-03-23T06:16:28.403Z,65.67
2018-03-23T06:18:54.354Z,65.68
2018-03-23T06:21:20.282Z,65.13
2018-03-23T06:23:46.256Z,65.19
2018-03-23T06:26:12.195Z,65.10
2018-03-23T06:28:38.133Z,65.49
2018-03-23T06:31:04.085Z,65.63
2018-03-23T06:33:30.067Z,65.33
2018-03-23T06:35:55.979Z,65.48
2018-03-23T06:38:21.957Z,65.16
2018-03-23T06:40:47.905Z,65.27
2018-03-23T06:43:13.837Z,65.53
2018-03-23T06:45:39.768Z,64.47
2018-03-23T06:48:05.693Z,65.25
2018-03-23T06:50:31.635Z,64.63
2018-03-23T06:52:57.586Z,63.73
2018-03-23T06:55:23.525Z,64.23
2018-03-23T06:57:49.469Z,63.83
2018-03-23T07:00:15.399Z,64.97
2018-03-23T07:02:41.381Z,64.83
2018-03-23T07:05:07.327Z,65.45
2018-03-23T07:07:33.288Z,64.25
2018-03-23T07:09:59.237Z,64.93
2018-03-23T07:12:25.176Z,64.13
2018-03-23T07:14:51.138Z,63.91
2018-03-23T07:17:17.093Z,63.95
2018-03-23T07:19:43.036Z,64.46
2018-03-23T07:22:08.963Z,64.42
2018-03-23T07:24:34.925Z,64.65
2018-03-23T07:27:00.865Z,64.31
2018-03-23T07:29:26.820Z,63.68
2018-03-23T07:31:52.762Z,63.29
2018-03-23T07:34:18.732Z,64.24
2018-03-23T07:36:44.672Z,62.98
2018-03-23T07:39:10.618Z,63.33
2018-03-23T07:41:36.553Z,63.47
2018-03-23T07:44:02.505Z,63.57
2018-03-23T07:46:28.453Z,62.91
2018-03-23T07:48:54.422Z,63.84
2018-03-23T07:51:20.368Z,63.44
2018-03-23T07:53:46.353Z,62.80
2018-03-23T07:56:12.302Z,63.19
2018-03-23T07:58:38.262Z,63.13
2018-03-23T08:01:04.214Z,63.27
2018-03-23T08:03:30.201Z,62.25
2018-03-23T08:05:56.170Z,63.05
2018-03-23T08:08:22.134Z,63.31
2018-03-23T08:10:48.085Z,61.75
2018-03-23T08:13:14.066Z,62.08
2018-03-23T08:15:40.010Z,62.24
2018-03-23T08:18:05.959Z,62.64
2018-03-23T08:20:31.916Z,61.96
2018-03-23T08:22:57.854Z,62.07
2018-03-23T08:25:23.802Z,62.29
2018-03-23T08:27:49.757Z,62.06
2018-03-23T08:30:15.696Z,62.13
2018-03-23T08:32:41.662Z,61.66
2018-03-23T08:35:07.592Z,62.05
2018-03-23T08:37:33.555Z,62.07
2018-03-23T08:39:59.498Z,61.91
2018-03-23T08:42:25.465Z,61.68
2018-03-23T08:44:51.452Z,62.18
2018-03-23T08:47:17.382Z,61.99
2018-03-23T08:49:43.352Z,62.33
2018-03-23T08:52:09.310Z,61.95
2018-03-23T08:54:35.268Z,61.73
2018-03-23T08:57:01.226Z,60.97
2018-03-23T08:59:27.169Z,61.66
2018-03-23T09:01:53.122Z,62.05
2018-03-23T09:04:19.091Z,61.98
2018-03-23T09:06:45.022Z,60.55
2018-03-23T09:09:10.966Z,61.05
2018-03-23T09:11:36.912Z,60.73
2018-03-23T09:14:02.886Z,60.53
2018-03-23T09:16:28.836Z,60.88
2018-03-23T09:18:54.834Z,60.98
2018-03-23T09:21:20.730Z,60.60
2018-03-23T09:23:46.688Z,60.67
2018-03-23T09:26:12.623Z,60.75
2018-03-23T09:28:38.585Z,60.71
2018-03-23T09:31:04.526Z,60.21
2018-03-23T09:33:30.500Z,60.27
2018-03-23T09:35:56.444Z,60.43
2018-03-23T09:38:22.390Z,59.97
2018-03-23T09:40:48.322Z,60.09
2018-03-23T09:43:14.278Z,59.92
2018-03-23T09:45:40.207Z,60.00
2018-03-23T09:48:06.174Z,60.43
2018-03-23T09:50:32.127Z,60.25
2018-03-23T09:52:58.070Z,60.09
2018-03-23T09:55:24.031Z,60.68
2018-03-23T09:57:50.002Z,60.60
2018-03-23T10:00:15.933Z,59.97
2018-03-23T10:02:41.889Z,60.25
2018-03-23T10:05:07.818Z,60.59
2018-03-23T10:07:33.767Z,60.93
2018-03-23T10:09:59.733Z,60.18
2018-03-23T10:12:25.719Z,60.25
2018-03-23T10:14:51.685Z,59.88
2018-03-23T10:17:17.627Z,59.55
2018-03-23T10:19:43.590Z,60.04
2018-03-23T10:22:09.564Z,60.50
2018-03-23T10:24:35.523Z,60.97
2018-03-23T10:27:01.480Z,59.72
2018-03-23T10:29:27.559Z,60.44
2018-03-23T10:31:53.593Z,59.77
2018-03-23T10:34:19.619Z,60.08
2018-03-23T10:36:45.695Z,59.68
2018-03-23T10:39:11.647Z,59.99
2018-03-23T10:41:37.593Z,60.57
2018-03-23T10:44:03.539Z,59.96
2018-03-23T10:46:29.485Z,60.46
2018-03-23T10:48:55.460Z,60.47
2018-03-23T10:51:21.422Z,60.42
2018-03-23T10:53:47.361Z,60.91
2018-03-23T10:56:13.317Z,60.53
2018-03-23T10:58:39.283Z,60.85
2018-03-23T11:01:05.253Z,61.17
2018-03-23T11:03:31.198Z,59.98
2018-03-23T11:05:57.161Z,59.85
2018-03-23T11:08:23.101Z,59.03
2018-03-23T11:10:49.043Z,60.20
2018-03-23T11:13:14.999Z,59.93
2018-03-23T11:15:40.947Z,59.75
2018-03-23T11:18:06.913Z,60.00
2018-03-23T11:20:32.870Z,59.97
2018-03-23T11:22:58.828Z,59.13
2018-03-23T11:25:24.771Z,59.61
2018-03-23T11:27:50.727Z,59.62
2018-03-23T11:30:16.685Z,59.41
2018-03-23T11:32:42.628Z,59.69
2018-03-23T11:35:08.603Z,59.88
2018-03-23T11:37:34.551Z,59.50
2018-03-23T11:40:00.511Z,59.36
2018-03-23T11:42:26.492Z,59.31
2018-03-23T11:44:52.433Z,59.19
2018-03-23T11:47:18.403Z,59.04
2018-03-23T11:49:44.352Z,58.49
2018-03-23T11:52:10.311Z,58.55
2018-03-23T11:54:36.311Z,58.00
2018-03-23T11:57:02.276Z,58.57
2018-03-23T11:59:28.219Z,57.86
2018-03-23T12:01:54.179Z,57.76
2018-03-23T12:04:20.115Z,57.41
2018-03-23T12:06:46.072Z,56.72
2018-03-23T12:09:12.181Z,56.97
2018-03-23T12:11:38.144Z,56.57
2018-03-23T12:14:04.089Z,56.88
2018-03-23T12:16:30.028Z,55.89
2018-03-23T12:18:55.979Z,55.43
2018-03-23T12:21:21.933Z,55.32
2018-03-23T12:23:47.899Z,55.41
2018-03-23T12:26:13.846Z,54.88
2018-03-23T12:28:39.777Z,55.12
2018-03-23T12:31:05.739Z,54.88
2018-03-23T12:33:31.719Z,54.86
2018-03-23T12:35:57.677Z,54.89
2018-03-23T12:38:23.612Z,54.67
2018-03-23T12:40:49.568Z,55.01
2018-03-23T12:43:15.525Z,54.92
2018-03-23T12:45:41.489Z,54.83
2018-03-23T12:48:07.447Z,54.58
2018-03-23T12:50:33.413Z,55.30
2018-03-23T12:52:59.377Z,54.96
2018-03-23T12:55:25.307Z,54.94
2018-03-23T12:57:51.299Z,54.98
2018-03-23T13:00:17.215Z,55.10
2018-03-23T13:02:43.157Z,55.54
2018-03-23T13:05:09.108Z,55.62
2018-03-23T13:07:35.073Z,55.94
2018-03-23T13:10:01.016Z,55.88
2018-03-23T13:12:26.950Z,56.65
2018-03-23T13:14:52.909Z,55.54
2018-03-23T13:17:18.889Z,55.73
2018-03-23T13:19:44.846Z,56.18
2018-03-23T13:22:10.782Z,55.47
2018-03-23T13:24:36.733Z,55.44
2018-03-23T13:27:02.694Z,55.55
2018-03-23T13:29:28.627Z,55.79
2018-03-23T13:31:54.576Z,55.30
2018-03-23T13:34:20.525Z,55.81
2018-03-23T13:36:46.498Z,55.65
2018-03-23T13:39:12.450Z,55.59
2018-03-23T13:41:38.426Z,55.76
2018-03-23T13:44:04.394Z,55.56
2018-03-23T13:46:30.346Z,56.39
2018-03-23T13:48:56.296Z,56.58
2018-03-23T13:51:22.258Z,56.46
2018-03-23T13:53:48.223Z,56.24
2018-03-23T13:56:14.202Z,56.17
2018-03-23T13:58:40.180Z,55.99
2018-03-23T14:01:06.163Z,55.43
2018-03-23T14:03:32.136Z,55.90
2018-03-23T14:05:58.074Z,55.96
2018-03-23T14:08:24.022Z,55.12
2018-03-23T14:10:49.950Z,54.39
2018-03-23T14:13:15.901Z,54.70
2018-03-23T14:15:41.854Z,55.34
2018-03-23T14:18:07.794Z,54.86
2018-03-23T14:20:33.730Z,54.99
2018-03-23T14:22:59.704Z,54.31
2018-03-23T14:25:25.795Z,54.55
2018-03-23T14:27:51.757Z,54.03
2018-03-23T14:30:17.726Z,53.82
2018-03-23T14:32:43.669Z,54.11
2018-03-23T14:35:09.631Z,54.04
2018-03-23T14:37:35.588Z,53.74
2018-03-23T14:40:01.530Z,52.95
2018-03-23T14:42:27.492Z,53.40
2018-03-23T14:44:53.429Z,54.15
2018-03-23T14:47:19.384Z,54.82
2018-03-23T14:49:45.338Z,54.83
2018-03-23T14:52:11.290Z,54.92
2018-03-23T14:54:37.234Z,54.87
2018-03-23T14:57:03.204Z,54.20
2018-03-23T14:59:29.220Z,54.54
2018-03-23T15:01:55.188Z,54.25
2018-03-23T15:04:21.158Z,53.80
2018-03-23T15:06:47.121Z,54.07
2018-03-23T15:09:13.247Z,53.70
2018-03-23T15:11:39.201Z,53.67
2018-03-23T15:14:05.153Z,53.75
2018-03-23T15:16:31.131Z,53.32
2018-03-23T15:18:57.063Z,53.82
2018-03-23T15:21:23.027Z,53.73
2018-03-23T15:23:49.001Z,54.02
2018-03-23T15:26:14.935Z,53.91
2018-03-23T15:28:40.906Z,53.99
2018-03-23T15:31:06.867Z,54.27
2018-03-23T15:33:32.827Z,54.28
2018-03-23T15:35:58.771Z,53.90
2018-03-23T15:38:24.735Z,53.94
2018-03-23T15:40:50.688Z,53.95
2018-03-23T15:43:16.666Z,53.72
2018-03-23T15:45:42.622Z,53.53
2018-03-23T15:48:08.593Z,53.70
2018-03-23T15:50:34.549Z,54.23
2018-03-23T15:53:00.533Z,54.12
2018-03-23T15:55:26.504Z,54.41
2018-03-23T15:57:52.467Z,54.67
2018-03-23T16:00:19.155Z,53.96
2018-03-23T16:02:45.258Z,53.72
2018-03-23T16:05:13.249Z,53.88
2018-03-23T16:07:39.218Z,54.51
2018-03-23T16:10:05.166Z,54.50
2018-03-23T16:12:31.135Z,54.42
2018-03-23T16:14:57.105Z,54.60
2018-03-23T16:17:23.076Z,54.58
2018-03-23T16:19:49.055Z,54.58
2018-03-23T16:22:15.006Z,55.30
2018-03-23T16:24:40.977Z,55.38
2018-03-23T16:27:06.938Z,54.77
2018-03-23T16:29:32.930Z,55.30
2018-03-23T16:31:58.933Z,55.78
2018-03-23T16:34:24.907Z,56.27
2018-03-23T16:36:51.866Z,56.51
2018-03-23T16:39:17.820Z,56.84
2018-03-23T16:41:43.796Z,56.62
2018-03-23T16:44:09.784Z,56.93
2018-03-23T16:46:35.728Z,56.81
2018-03-23T16:49:01.812Z,56.36
2018-03-23T16:51:27.786Z,56.22
2018-03-23T16:53:53.777Z,56.42
2018-03-23T16:56:19.737Z,56.81
2018-03-23T16:58:45.703Z,57.27
2018-03-23T17:01:11.646Z,57.16
2018-03-23T17:03:37.649Z,57.03
2018-03-23T17:06:03.654Z,57.28
2018-03-23T17:08:29.634Z,56.66
2018-03-23T17:10:55.573Z,56.81
2018-03-23T17:13:21.557Z,57.11
2018-03-23T17:15:47.524Z,56.57
2018-03-23T17:18:13.508Z,57.41
2018-03-23T17:20:39.468Z,56.79
2018-03-23T17:23:05.435Z,56.37
2018-03-23T17:25:31.401Z,56.19
2018-03-23T17:27:57.344Z,56.35
2018-03-23T17:30:23.487Z,56.11
2018-03-23T17:32:49.442Z,56.64
2018-03-23T17:35:15.418Z,56.48
2018-03-23T17:37:41.361Z,56.57
2018-03-23T17:40:07.354Z,57.08
2018-03-23T17:42:33.328Z,56.76
2018-03-23T17:45:00.207Z,57.39
2018-03-23T17:47:27.948Z,57.12
2018-03-23T17:49:53.955Z,58.14
2018-03-23T17:52:19.937Z,57.83
2018-03-23T17:54:46.055Z,57.90
2018-03-23T17:57:12.096Z,58.10
2018-03-23T17:59:38.239Z,58.00
2018-03-23T18:02:04.241Z,58.72
2018-03-23T18:04:30.220Z,59.10
2018-03-23T18:06:56.244Z,58.48
2018-03-23T18:09:22.178Z,57.44
2018-03-23T18:11:48.165Z,58.38
2018-03-23T18:14:14.195Z,59.14
2018-03-23T18:16:40.142Z,59.01
2018-03-23T18:19:06.083Z,59.58
2018-03-23T18:21:32.098Z,59.38
2018-03-23T18:24:00.136Z,59.17
2018-03-23T18:26:26.122Z,59.61
2018-03-23T18:28:52.121Z,59.48
2018-03-23T18:31:22.376Z,59.43
2018-03-23T18:33:50.359Z,60.36
2018-03-23T18:36:16.361Z,62.10
2018-03-23T18:38:42.324Z,59.89
2018-03-23T18:41:08.255Z,59.96
2018-03-23T18:43:34.211Z,59.71
2018-03-23T18:46:00.193Z,60.54
2018-03-23T18:48:26.148Z,60.65
2018-03-23T18:50:52.291Z,60.67
2018-03-23T18:53:18.247Z,60.79
2018-03-23T18:55:44.262Z,60.78
2018-03-23T18:58:10.220Z,60.51
2018-03-23T19:00:36.201Z,60.07
2018-03-23T19:03:02.151Z,59.85
2018-03-23T19:05:29.171Z,59.84
2018-03-23T19:07:55.116Z,60.42
2018-03-23T19:10:21.125Z,61.15
2018-03-23T19:12:47.081Z,61.24
2018-03-23T19:15:15.116Z,61.08
2018-03-23T19:17:41.069Z,60.32
2018-03-23T19:20:07.049Z,60.78
2018-03-23T19:22:33.029Z,60.66
2018-03-23T19:24:58.988Z,60.30
2018-03-23T19:27:26.970Z,60.97
2018-03-23T19:29:52.934Z,61.68
2018-03-23T19:32:18.883Z,61.58
2018-03-23T19:34:44.860Z,61.92
2018-03-23T19:37:10.834Z,62.14
2018-03-23T19:39:36.805Z,61.65
2018-03-23T19:42:02.832Z,61.28
2018-03-23T19:44:28.772Z,61.43
2018-03-23T19:46:54.727Z,61.83
2018-03-23T19:49:20.680Z,62.40
2018-03-23T19:51:46.645Z,61.68
2018-03-23T19:54:12.604Z,62.38
2018-03-23T19:56:38.564Z,62.27
2018-03-23T19:59:04.498Z,62.26
2018-03-23T20:01:30.450Z,62.09
2018-03-23T20:03:56.406Z,62.98
2018-03-23T20:06:22.370Z,63.08
2018-03-23T20:08:48.320Z,62.96
2018-03-23T20:11:14.294Z,62.81
2018-03-23T20:13:40.302Z,62.51
2018-03-23T20:16:06.260Z,62.68
2018-03-23T20:18:32.227Z,62.40
2018-03-23T20:20:58.194Z,62.01
2018-03-23T20:23:24.150Z,61.54
2018-03-23T20:25:50.104Z,61.55
2018-03-23T20:28:16.048Z,62.32
2018-03-23T20:30:41.994Z,62.76
2018-03-23T20:33:07.947Z,63.39
2018-03-23T20:35:33.883Z,62.77
2018-03-23T20:37:59.825Z,62.14
2018-03-23T20:40:25.768Z,61.63
2018-03-23T20:42:53.807Z,62.30
2018-03-23T20:45:19.774Z,62.87
2018-03-23T20:47:45.725Z,63.18
2018-03-23T20:50:11.688Z,63.65
2018-03-23T20:52:37.647Z,63.77
2018-03-23T20:55:03.608Z,63.32
2018-03-23T20:57:29.590Z,63.09
2018-03-23T20:59:55.559Z,63.08
2018-03-23T21:02:21.525Z,62.71
2018-03-23T21:04:47.485Z,62.68
2018-03-23T21:07:15.495Z,62.50
2018-03-23T21:09:41.472Z,62.23
2018-03-23T21:12:08.483Z,62.91
2018-03-23T21:14:34.430Z,63.50
2018-03-23T21:17:00.410Z,63.64
2018-03-23T21:19:26.408Z,63.38
2018-03-23T21:21:52.392Z,63.45
2018-03-23T21:24:18.386Z,63.52
2018-03-23T21:26:44.331Z,63.23
2018-03-23T21:29:10.267Z,63.22
2018-03-23T21:31:36.230Z,62.32
2018-03-23T21:34:02.205Z,62.01
2018-03-23T21:36:28.180Z,63.57
2018-03-23T21:38:54.118Z,63.22
2018-03-23T21:41:20.089Z,63.53
2018-03-23T21:43:46.024Z,63.35
2018-03-23T21:46:11.964Z,63.88
2018-03-23T21:48:37.940Z,63.18
2018-03-23T21:51:03.899Z,62.78
2018-03-23T21:53:29.866Z,62.36
2018-03-23T21:55:55.813Z,62.23
2018-03-23T21:58:21.817Z,62.44
2018-03-23T22:00:47.762Z,62.77
2018-03-23T22:03:13.702Z,62.65
2018-03-23T22:05:39.658Z,62.81
2018-03-23T22:08:05.622Z,63.83
2018-03-23T22:10:31.564Z,62.89
2018-03-23T22:12:57.530Z,64.27
2018-03-23T22:15:23.466Z,64.09
2018-03-23T22:17:49.395Z,63.09
2018-03-23T22:20:15.358Z,63.46
2018-03-23T22:22:41.320Z,63.11
2018-03-23T22:25:07.264Z,62.49
2018-03-23T22:27:33.208Z,62.39
2018-03-23T22:29:59.177Z,62.25
2018-03-23T22:32:25.104Z,62.98
2018-03-23T22:34:51.062Z,63.67
2018-03-23T22:37:17.004Z,63.17
2018-03-23T22:39:42.948Z,61.78
2018-03-23T22:42:08.999Z,59.71
2018-03-23T22:44:34.954Z,62.63
2018-03-23T22:47:00.907Z,63.64
2018-03-23T22:49:26.842Z,63.89
2018-03-23T22:51:52.808Z,63.81
2018-03-23T22:54:18.794Z,63.01
2018-03-23T22:56:44.730Z,63.11
2018-03-23T22:59:10.710Z,63.21
2018-03-23T23:01:36.656Z,62.95
2018-03-23T23:04:02.644Z,62.88
2018-03-23T23:06:28.598Z,63.20
2018-03-23T23:08:54.558Z,62.96
2018-03-23T23:11:20.534Z,64.32
2018-03-23T23:13:46.521Z,63.54
2018-03-23T23:16:12.458Z,63.65
2018-03-23T23:18:38.405Z,62.68
2018-03-23T23:21:04.374Z,64.52
2018-03-23T23:23:30.326Z,63.95
2018-03-23T23:25:56.254Z,62.87
2018-03-23T23:28:22.188Z,62.92
2018-03-23T23:30:48.142Z,62.67
2018-03-23T23:33:14.112Z,63.50
2018-03-23T23:35:40.060Z,64.24
2018-03-23T23:38:06.011Z,64.14
2018-03-23T23:40:31.972Z,64.05
2018-03-23T23:42:57.919Z,64.91
2018-03-23T23:45:23.854Z,64.61
2018-03-23T23:47:49.799Z,64.50
2018-03-23T23:50:15.757Z,64.09
2018-03-23T23:52:41.785Z,65.40
2018-03-23T23:55:07.718Z,64.22
2018-03-23T23:57:33.684Z,64.69
2018-03-23T23:59:59.633Z,64.83
